Time;durP1;ratioP1;P1;durP2;ratioP2;P2;SDS_P1;SDS_P2;PMS_P1;PMS_P2;Temp;Humidity;BMP_temperature;BMP_pressure;BME280_temperature;BME280_humidity;BME280_pressure;Samples;Min_cycle;Max_cycle;Signal;HPM_P1;HPM_P2
2022/08/23 00:02:02;;;;;;;2.43;2.00;;;17.10;97.30;;;;;;5082664;28;20424;-80
2022/08/23 00:04:32;;;;;;;1.83;1.73;;;17.00;97.30;;;;;;5082138;28;20406;-80
2022/08/23 00:06:59;;;;;;;2.13;1.67;;;17.00;97.30;;;;;;5079002;28;20412;-79
2022/08/23 00:09:26;;;;;;;2.13;1.87;;;17.00;97.30;;;;;;5074096;28;20441;-79
2022/08/23 00:12:14;;;;;;;1.93;1.70;;;17.00;97.30;;;;;;5075533;28;20433;-79
2022/08/23 00:14:44;;;;;;;2.27;2.10;;;16.90;97.30;;;;;;5080068;28;20398;-81
2022/08/23 00:17:10;;;;;;;1.87;1.50;;;16.90;97.30;;;;;;5083298;28;20412;-81
2022/08/23 00:19:37;;;;;;;3.80;2.40;;;16.90;97.30;;;;;;5081817;28;20456;-81
2022/08/23 00:22:03;;;;;;;2.10;1.90;;;16.80;97.30;;;;;;5083880;28;20420;-81
2022/08/23 00:24:28;;;;;;;2.57;2.37;;;16.80;97.30;;;;;;5082427;28;20425;-81
2022/08/23 00:26:59;;;;;;;2.00;1.73;;;16.80;97.30;;;;;;5083179;28;20470;-81
2022/08/23 00:29:31;;;;;;;1.50;1.40;;;16.80;97.30;;;;;;5083354;28;20259;-81
2022/08/23 00:31:58;;;;;;;2.43;2.27;;;16.70;97.30;;;;;;5082735;28;20406;-81
2022/08/23 00:34:24;;;;;;;2.43;2.13;;;16.70;97.30;;;;;;5082755;28;20409;-81
2022/08/23 00:36:50;;;;;;;2.17;2.00;;;16.60;97.30;;;;;;5083135;28;20425;-80
2022/08/23 00:39:17;;;;;;;1.63;1.53;;;16.60;97.30;;;;;;5081683;28;20532;-81
2022/08/23 00:41:45;;;;;;;1.60;1.53;;;16.60;97.30;;;;;;5083567;28;20930;-81
2022/08/23 00:49:57;;;;;;;2.37;2.00;;;16.50;97.30;;;;;;5083255;28;20538;-81
2022/08/23 00:52:33;;;;;;;2.30;2.10;;;16.50;97.30;;;;;;5083065;28;20406;-81
2022/08/23 00:54:59;;;;;;;2.30;1.63;;;16.40;97.30;;;;;;5082792;28;20413;-80
2022/08/23 00:57:26;;;;;;;3.70;2.27;;;16.40;97.30;;;;;;5081361;28;20468;-81
2022/08/23 00:59:52;;;;;;;3.13;1.73;;;16.30;97.30;;;;;;5082565;28;20532;-80
2022/08/23 01:02:17;;;;;;;1.73;1.50;;;16.30;97.30;;;;;;5078535;28;20484;-80
2022/08/23 01:04:53;;;;;;;2.30;1.93;;;16.20;97.30;;;;;;5080169;28;20179;-80
2022/08/23 01:07:36;;;;;;;2.00;1.90;;;16.20;97.30;;;;;;5079674;28;20189;-80
2022/08/23 01:10:08;;;;;;;2.63;2.20;;;16.10;97.30;;;;;;5078296;28;20436;-80
2022/08/23 01:12:45;;;;;;;1.80;1.70;;;16.10;97.30;;;;;;5077287;28;20402;-79
2022/08/23 01:15:19;;;;;;;4.97;2.23;;;16.10;97.30;;;;;;5072688;28;20409;-79
2022/08/23 01:18:08;;;;;;;2.57;1.70;;;16.10;97.30;;;;;;5074495;28;20397;-79
2022/08/23 01:21:15;;;;;;;2.13;1.97;;;16.10;97.30;;;;;;5072929;28;21123;-79
2022/08/23 01:23:55;;;;;;;3.67;2.87;;;16.10;97.30;;;;;;5062754;28;21002;-79
2022/08/23 01:26:23;;;;;;;3.40;1.80;;;16.00;97.30;;;;;;5079853;28;20405;-80
2022/08/23 01:28:51;;;;;;;2.30;2.00;;;16.00;97.30;;;;;;5081498;28;20505;-80
2022/08/23 01:31:17;;;;;;;1.97;1.70;;;15.90;97.30;;;;;;5081707;28;20496;-78
2022/08/23 01:33:48;;;;;;;1.87;1.50;;;15.90;97.30;;;;;;5079285;28;20499;-81
2022/08/23 01:36:15;;;;;;;1.50;1.40;;;15.90;97.30;;;;;;5077825;28;20417;-79
2022/08/23 01:38:41;;;;;;;2.50;2.17;;;15.90;97.30;;;;;;5073176;28;20631;-78
2022/08/23 01:41:08;;;;;;;2.20;2.07;;;15.80;97.30;;;;;;5073107;28;20416;-79
2022/08/23 01:43:34;;;;;;;1.47;1.40;;;15.70;97.30;;;;;;5073324;28;20461;-79
2022/08/23 01:46:10;;;;;;;3.67;1.67;;;15.70;97.30;;;;;;5073581;28;20436;-80
2022/08/23 01:48:36;;;;;;;2.13;1.83;;;15.60;97.30;;;;;;5072901;28;20572;-80
2022/08/23 01:51:02;;;;;;;4.07;3.40;;;15.60;97.30;;;;;;5072968;28;20504;-79
2022/08/23 01:53:27;;;;;;;2.60;2.23;;;15.50;97.30;;;;;;5072246;28;20965;-79
2022/08/23 01:55:53;;;;;;;4.70;2.50;;;15.50;97.30;;;;;;5073769;28;20412;-79
2022/08/23 01:58:19;;;;;;;2.07;1.90;;;15.50;97.30;;;;;;5074001;28;20183;-79
2022/08/23 02:00:45;;;;;;;1.53;1.43;;;15.40;97.30;;;;;;5072598;28;20639;-79
2022/08/23 02:03:11;;;;;;;1.67;1.60;;;15.40;97.30;;;;;;5073569;28;20199;-79
2022/08/23 02:05:38;;;;;;;2.60;1.83;;;15.30;97.30;;;;;;5071680;28;20522;-79
2022/08/23 02:10:50;;;;;;;2.37;2.17;;;15.30;97.30;;;;;;5073174;28;20440;-79
2022/08/23 02:13:15;;;;;;;3.07;2.70;;;15.30;97.30;;;;;;5071453;28;20410;-78
2022/08/23 02:15:43;;;;;;;3.10;2.20;;;15.20;97.30;;;;;;5070489;28;20171;-79
2022/08/23 02:18:10;;;;;;;2.77;2.67;;;15.20;97.30;;;;;;5070435;28;20182;-78
2022/08/23 02:20:35;;;;;;;9.90;3.50;;;15.20;97.30;;;;;;5070806;28;20438;-79
2022/08/23 02:23:01;;;;;;;2.23;2.03;;;15.20;97.30;;;;;;5073329;28;20445;-79
2022/08/23 02:25:27;;;;;;;2.30;1.77;;;15.20;97.30;;;;;;5077491;28;20436;-80
2022/08/23 02:27:53;;;;;;;2.00;1.77;;;15.20;97.30;;;;;;5077086;28;20418;-79
2022/08/23 02:30:19;;;;;;;3.60;2.53;;;15.10;97.30;;;;;;5074343;28;20433;-80
2022/08/23 02:32:44;;;;;;;1.97;1.90;;;15.10;97.30;;;;;;5078352;28;20549;-80
2022/08/23 02:35:10;;;;;;;2.40;1.67;;;15.10;97.30;;;;;;5080280;28;20755;-80
2022/08/23 02:37:35;;;;;;;3.70;2.27;;;15.10;97.30;;;;;;5079303;28;20750;-80
2022/08/23 02:40:02;;;;;;;1.77;1.73;;;15.10;97.30;;;;;;5078315;28;20202;-79
2022/08/23 02:42:28;;;;;;;2.33;2.13;;;15.00;97.30;;;;;;5072968;28;20194;-81
2022/08/23 02:44:54;;;;;;;2.53;2.03;;;15.00;97.30;;;;;;5079438;28;20413;-80
2022/08/23 02:47:19;;;;;;;2.10;1.90;;;15.00;97.30;;;;;;5079696;28;20175;-80
2022/08/23 02:49:45;;;;;;;2.47;2.27;;;15.00;97.30;;;;;;5080635;28;20772;-80
2022/08/23 02:52:11;;;;;;;2.00;1.90;;;14.90;97.30;;;;;;5080517;28;20171;-80
2022/08/23 02:54:36;;;;;;;2.83;2.63;;;14.90;97.30;;;;;;5077687;28;20228;-80
2022/08/23 02:57:03;;;;;;;3.77;3.10;;;14.90;97.30;;;;;;5072856;28;20696;-79
2022/08/23 02:59:28;;;;;;;1.80;1.70;;;14.90;97.30;;;;;;5073166;28;20198;-79
2022/08/23 03:01:54;;;;;;;2.60;2.40;;;14.80;97.30;;;;;;5071694;28;20930;-78
2022/08/23 03:04:19;;;;;;;2.97;2.13;;;14.80;97.30;;;;;;5075713;28;20183;-79
2022/08/23 03:06:45;;;;;;;2.27;2.00;;;14.80;97.30;;;;;;5079787;28;20258;-80
2022/08/23 03:09:10;;;;;;;10.40;1.90;;;14.80;97.30;;;;;;5080974;28;20187;-80
2022/08/23 03:11:37;;;;;;;2.60;2.40;;;14.80;97.30;;;;;;5079474;28;20182;-79
2022/08/23 03:14:02;;;;;;;2.17;1.93;;;14.80;97.30;;;;;;5077557;28;20288;-79
2022/08/23 03:16:28;;;;;;;3.50;2.57;;;14.90;97.30;;;;;;5076374;28;20881;-79
2022/08/23 03:18:54;;;;;;;2.40;2.20;;;14.90;97.30;;;;;;5076898;28;20194;-79
2022/08/23 03:21:20;;;;;;;2.20;2.00;;;14.90;97.30;;;;;;5077732;28;20185;-79
2022/08/23 03:23:47;;;;;;;7.80;3.03;;;14.90;97.30;;;;;;5076911;28;20809;-79
2022/08/23 03:26:13;;;;;;;3.00;2.17;;;14.90;97.30;;;;;;5078907;28;20421;-79
2022/08/23 03:28:41;;;;;;;5.17;2.80;;;14.90;97.30;;;;;;5078547;28;20448;-78
2022/08/23 03:31:08;;;;;;;3.57;2.27;;;14.90;97.30;;;;;;5078538;28;20840;-80
2022/08/23 03:33:34;;;;;;;3.53;2.40;;;14.90;97.30;;;;;;5080691;28;20817;-79
2022/08/23 03:36:01;;;;;;;2.83;2.00;;;14.90;97.30;;;;;;5081232;28;20962;-79
2022/08/23 03:38:27;;;;;;;2.43;1.87;;;14.90;97.30;;;;;;5078492;28;20935;-79
2022/08/23 03:40:53;;;;;;;1.90;1.80;;;14.90;97.30;;;;;;5077377;28;20494;-79
2022/08/23 03:43:19;;;;;;;4.07;3.10;;;14.90;97.30;;;;;;5076729;28;20199;-79
2022/08/23 03:45:45;;;;;;;1.90;1.80;;;14.80;97.30;;;;;;5075356;28;20503;-79
2022/08/23 03:48:11;;;;;;;2.97;2.17;;;14.80;97.30;;;;;;5076298;28;20903;-79
2022/08/23 03:50:36;;;;;;;1.47;1.37;;;14.80;97.30;;;;;;5075197;28;20202;-79
2022/08/23 03:53:03;;;;;;;2.63;2.43;;;14.80;97.30;;;;;;5076814;28;20218;-79
2022/08/23 03:55:29;;;;;;;4.17;3.37;;;14.80;97.30;;;;;;5077418;28;20521;-79
2022/08/23 03:57:54;;;;;;;4.10;1.90;;;14.80;97.30;;;;;;5077266;28;20472;-79
2022/08/23 04:00:20;;;;;;;4.87;2.93;;;14.80;97.30;;;;;;5076976;28;20207;-79
2022/08/23 04:02:46;;;;;;;2.10;1.60;;;14.80;97.30;;;;;;5076641;28;20199;-79
2022/08/23 04:05:12;;;;;;;8.93;3.70;;;14.80;97.30;;;;;;5076283;28;20789;-79
2022/08/23 04:07:38;;;;;;;2.77;2.13;;;14.80;97.30;;;;;;5077676;28;20175;-79
2022/08/23 04:10:06;;;;;;;1.97;1.53;;;14.80;97.30;;;;;;5079396;28;20201;-80
2022/08/23 04:12:32;;;;;;;2.23;2.03;;;14.80;97.30;;;;;;5079153;28;20421;-80
2022/08/23 04:14:57;;;;;;;2.60;2.17;;;14.90;97.30;;;;;;5077416;28;20452;-80
2022/08/23 04:17:23;;;;;;;3.80;2.43;;;14.90;97.30;;;;;;5078244;28;20234;-79
2022/08/23 04:19:48;;;;;;;3.53;2.17;;;14.90;97.30;;;;;;5077745;28;20199;-80
2022/08/23 04:22:17;;;;;;;2.80;2.60;;;15.00;97.30;;;;;;5080279;28;20238;-80
2022/08/23 04:24:44;;;;;;;2.63;1.87;;;15.00;97.30;;;;;;5082436;28;20263;-80
2022/08/23 04:27:10;;;;;;;2.37;2.17;;;15.00;97.30;;;;;;5081221;28;20405;-80
2022/08/23 04:29:37;;;;;;;2.43;2.30;;;15.00;97.30;;;;;;5079407;28;20560;-81
2022/08/23 04:32:05;;;;;;;2.43;2.23;;;15.10;97.30;;;;;;5079474;28;20421;-80
2022/08/23 04:34:31;;;;;;;2.63;2.13;;;15.10;97.30;;;;;;5079298;28;20422;-80
2022/08/23 04:36:57;;;;;;;3.70;3.50;;;15.20;97.30;;;;;;5078980;28;20421;-81
2022/08/23 04:39:22;;;;;;;5.17;2.93;;;15.20;97.30;;;;;;5078791;28;20520;-82
2022/08/23 04:44:32;;;;;;;4.67;2.67;;;15.30;97.30;;;;;;5081533;28;20166;-81
2022/08/23 04:46:57;;;;;;;4.60;3.10;;;15.30;97.30;;;;;;5079405;28;20496;-81
2022/08/23 04:49:23;;;;;;;3.70;2.67;;;15.30;97.30;;;;;;5078899;28;20191;-81
2022/08/23 04:51:49;;;;;;;7.53;2.70;;;15.30;97.30;;;;;;5078844;28;20168;-80
2022/08/23 04:54:15;;;;;;;2.03;1.93;;;15.30;97.30;;;;;;5077819;28;20183;-81
2022/08/23 04:56:41;;;;;;;3.30;1.93;;;15.30;97.30;;;;;;5088784;28;20252;-82
2022/08/23 04:59:07;;;;;;;2.50;2.30;;;15.40;97.30;;;;;;5081291;28;20437;-81
2022/08/23 05:01:33;;;;;;;3.90;2.33;;;15.40;97.30;;;;;;5082464;28;20761;-80
2022/08/23 05:04:00;;;;;;;4.77;3.13;;;15.40;97.30;;;;;;5081548;28;20903;-80
2022/08/23 05:06:27;;;;;;;4.00;2.40;;;15.40;97.30;;;;;;5081729;28;20503;-80
2022/08/23 05:08:53;;;;;;;7.50;3.30;;;15.40;97.30;;;;;;5081422;28;20444;-80
2022/08/23 05:11:19;;;;;;;3.43;2.83;;;15.50;97.30;;;;;;5081280;28;20473;-80
2022/08/23 05:13:45;;;;;;;2.37;2.00;;;15.50;97.30;;;;;;5080990;28;20189;-81
2022/08/23 05:16:12;;;;;;;1.93;1.83;;;15.50;97.30;;;;;;5080589;28;20447;-80
2022/08/23 05:18:38;;;;;;;2.33;2.13;;;15.60;97.30;;;;;;5080437;28;20416;-80
2022/08/23 05:21:04;;;;;;;3.40;2.40;;;15.60;97.30;;;;;;5081211;28;20516;-80
2022/08/23 05:23:29;;;;;;;4.20;2.23;;;15.60;97.30;;;;;;5081151;28;20202;-80
2022/08/23 05:25:55;;;;;;;3.00;1.87;;;15.70;97.30;;;;;;5081165;28;20641;-81
2022/08/23 05:28:33;;;;;;;4.37;2.67;;;15.70;97.30;;;;;;5081465;28;20186;-80
2022/08/23 05:31:02;;;;;;;5.97;2.80;;;15.80;97.30;;;;;;5081594;28;20412;-80
2022/08/23 05:33:30;;;;;;;2.83;2.27;;;15.90;97.30;;;;;;5081421;28;20417;-82
2022/08/23 05:35:56;;;;;;;4.30;2.50;;;15.90;97.30;;;;;;5081464;28;20424;-81
2022/08/23 05:38:22;;;;;;;1.60;1.60;;;16.00;97.30;;;;;;5081336;28;20423;-80
2022/08/23 05:40:53;;;;;;;3.00;2.83;;;16.00;97.30;;;;;;5081275;28;20198;-80
2022/08/23 05:43:19;;;;;;;4.03;3.23;;;16.00;97.30;;;;;;5081358;28;20452;-80
2022/08/23 05:45:46;;;;;;;4.67;3.63;;;16.10;97.30;;;;;;5080662;28;20416;-81
2022/08/23 05:48:14;;;;;;;5.43;3.20;;;16.20;97.30;;;;;;5081375;28;20467;-80
2022/08/23 05:50:40;;;;;;;3.97;3.67;;;16.20;97.30;;;;;;5098825;28;20424;-80
2022/08/23 05:53:08;;;;;;;3.13;2.93;;;16.30;97.30;;;;;;5099010;28;20443;-81
2022/08/23 05:55:34;;;;;;;3.50;3.13;;;16.30;97.30;;;;;;5081031;28;20940;-81
2022/08/23 05:58:00;;;;;;;6.90;4.10;;;16.40;97.30;;;;;;5080083;28;20452;-80
2022/08/23 06:00:26;;;;;;;11.63;3.37;;;16.50;97.30;;;;;;5080097;28;20433;-80
2022/08/23 06:02:53;;;;;;;4.23;2.37;;;16.50;97.30;;;;;;5079914;28;20221;-80
2022/08/23 06:05:19;;;;;;;3.70;2.60;;;16.60;97.30;;;;;;5080120;28;20409;-79
2022/08/23 06:07:45;;;;;;;3.10;2.27;;;16.60;97.30;;;;;;5080212;28;20413;-80
2022/08/23 06:10:11;;;;;;;2.67;2.50;;;16.70;97.30;;;;;;5080311;28;20515;-80
2022/08/23 06:12:36;;;;;;;4.40;2.73;;;16.70;97.30;;;;;;5079753;28;20205;-80
2022/08/23 06:15:03;;;;;;;4.17;2.33;;;16.80;97.30;;;;;;5080513;28;20186;-80
2022/08/23 06:17:28;;;;;;;2.50;1.87;;;16.90;97.30;;;;;;5079969;28;20178;-81
2022/08/23 06:19:54;;;;;;;9.63;3.87;;;16.90;97.30;;;;;;5080380;28;20810;-80
2022/08/23 06:22:20;;;;;;;5.93;2.57;;;17.00;97.30;;;;;;5079607;28;20202;-80
2022/08/23 06:24:46;;;;;;;4.03;2.30;;;17.00;97.30;;;;;;5097564;28;20661;-81
2022/08/23 06:27:12;;;;;;;2.17;2.00;;;17.10;97.30;;;;;;5079758;28;20221;-80
2022/08/23 06:29:38;;;;;;;3.40;2.67;;;17.20;97.30;;;;;;5078716;28;20433;-81
2022/08/23 06:32:04;;;;;;;3.10;1.83;;;17.20;97.30;;;;;;5079389;28;20715;-80
2022/08/23 06:34:37;;;;;;;2.33;2.17;;;17.30;97.30;;;;;;5079323;28;20810;-80
2022/08/23 06:37:06;;;;;;;1.53;1.43;;;17.40;97.30;;;;;;5098070;28;20457;-81
2022/08/23 06:39:32;;;;;;;1.73;1.37;;;17.40;97.30;;;;;;5084210;28;20432;-81
2022/08/23 06:42:00;;;;;;;4.97;2.60;;;17.50;97.30;;;;;;5084904;28;20404;-81
2022/08/23 06:44:27;;;;;;;3.30;2.50;;;17.60;97.30;;;;;;5084538;28;20956;-81
2022/08/23 06:46:55;;;;;;;3.47;2.20;;;17.60;97.30;;;;;;5085561;28;20496;-80
2022/08/23 06:49:21;;;;;;;3.13;2.03;;;17.70;97.30;;;;;;5085444;28;20444;-81
2022/08/23 06:51:52;;;;;;;4.60;3.80;;;17.70;97.30;;;;;;5084537;28;20922;-81
2022/08/23 06:54:20;;;;;;;1.63;1.57;;;17.70;97.30;;;;;;5101717;28;20413;-80
2022/08/23 06:56:47;;;;;;;2.60;2.50;;;17.80;97.30;;;;;;5083792;28;20965;-80
2022/08/23 06:59:13;;;;;;;2.77;2.57;;;17.80;97.30;;;;;;5101866;28;20431;-80
2022/08/23 07:01:58;;;;;;;4.90;2.60;;;17.90;97.30;;;;;;5083724;28;20415;-80
2022/08/23 07:04:36;;;;;;;3.10;2.20;;;18.00;97.30;;;;;;5084562;28;20420;-81
2022/08/23 07:07:03;;;;;;;8.23;3.60;;;18.00;97.30;;;;;;5082885;28;20416;-80
2022/08/23 07:09:30;;;;;;;1.50;1.40;;;18.10;97.30;;;;;;5084428;28;20436;-80
2022/08/23 07:11:56;;;;;;;2.30;1.40;;;18.10;97.30;;;;;;5082588;28;20412;-80
2022/08/23 07:14:23;;;;;;;2.30;2.13;;;18.10;97.30;;;;;;5082367;28;20442;-81
2022/08/23 07:16:52;;;;;;;2.80;2.43;;;18.20;97.30;;;;;;5082793;28;20495;-80
2022/08/23 07:19:21;;;;;;;39.63;3.30;;;18.20;97.30;;;;;;5082960;28;20450;-81
2022/08/23 07:21:48;;;;;;;2.13;1.80;;;18.30;97.30;;;;;;5082504;28;20408;-81
2022/08/23 07:24:14;;;;;;;1.47;1.37;;;18.30;97.30;;;;;;5082907;28;20456;-81
2022/08/23 07:26:41;;;;;;;3.13;2.23;;;18.40;97.30;;;;;;5084378;28;20423;-80
2022/08/23 07:29:08;;;;;;;1.43;1.30;;;18.40;97.30;;;;;;5103134;28;20424;-80
2022/08/23 07:31:39;;;;;;;2.30;1.80;;;18.40;97.30;;;;;;5084253;28;20408;-81
2022/08/23 07:34:05;;;;;;;1.50;1.40;;;18.50;97.30;;;;;;5084416;28;20437;-80
2022/08/23 07:36:35;;;;;;;1.63;1.60;;;18.50;97.30;;;;;;5083613;28;20428;-80
2022/08/23 07:39:04;;;;;;;2.30;2.10;;;18.50;97.30;;;;;;5084230;28;20451;-80
2022/08/23 07:41:30;;;;;;;1.87;1.57;;;18.60;97.30;;;;;;5102738;28;20412;-80
2022/08/23 07:43:58;;;;;;;3.53;2.13;;;18.60;97.30;;;;;;5083639;28;20482;-81
2022/08/23 07:46:24;;;;;;;2.03;1.63;;;18.60;97.30;;;;;;5083613;28;20413;-81
2022/08/23 07:48:51;;;;;;;1.77;1.70;;;18.70;97.30;;;;;;5083146;28;21034;-80
2022/08/23 07:51:17;;;;;;;2.70;2.50;;;18.70;97.30;;;;;;5083535;28;20922;-81
2022/08/23 07:53:44;;;;;;;3.13;2.40;;;18.80;97.30;;;;;;5083173;28;20522;-80
2022/08/23 07:56:12;;;;;;;1.53;1.43;;;18.80;97.30;;;;;;5083908;28;20214;-80
2022/08/23 07:58:38;;;;;;;1.70;1.60;;;18.90;97.30;;;;;;5101241;28;20426;-81
2022/08/23 08:01:17;;;;;;;3.30;2.00;;;18.90;97.30;;;;;;5084421;28;20515;-81
2022/08/23 08:03:44;;;;;;;3.00;1.47;;;18.90;97.30;;;;;;5101654;28;20448;-80
2022/08/23 08:06:34;;;;;;;1.83;1.73;;;19.00;97.30;;;;;;5083566;28;20421;-80
2022/08/23 08:09:00;;;;;;;2.90;1.40;;;19.00;97.30;;;;;;5074338;28;20448;-81
2022/08/23 08:11:29;;;;;;;3.00;1.70;;;19.10;97.30;;;;;;5082961;28;20408;-82
2022/08/23 08:13:55;;;;;;;2.43;2.23;;;19.20;97.30;;;;;;5081757;28;20442;-81
2022/08/23 08:16:30;;;;;;;1.70;1.60;;;19.20;97.30;;;;;;5082591;28;20844;-80
2022/08/23 08:18:58;;;;;;;1.80;1.67;;;19.30;97.30;;;;;;5082521;28;20255;-80
2022/08/23 08:21:25;;;;;;;1.50;1.40;;;19.30;97.30;;;;;;5083158;28;20470;-80
2022/08/23 08:23:51;;;;;;;2.50;2.30;;;19.40;97.30;;;;;;5101353;28;20969;-81
2022/08/23 08:26:17;;;;;;;1.77;1.67;;;19.40;97.30;;;;;;5081906;28;20415;-82
2022/08/23 08:28:43;;;;;;;1.23;1.20;;;19.50;97.30;;;;;;5082276;28;20181;-80
2022/08/23 08:31:09;;;;;;;5.73;1.70;;;19.50;97.30;;;;;;5080748;28;20420;-80
2022/08/23 08:33:35;;;;;;;2.50;1.67;;;19.60;97.30;;;;;;5082116;28;20428;-80
2022/08/23 08:36:01;;;;;;;1.37;1.33;;;19.60;97.30;;;;;;5083058;28;20182;-81
2022/08/23 08:38:27;;;;;;;1.67;1.63;;;19.70;97.30;;;;;;5081923;28;20516;-80
2022/08/23 08:41:04;;;;;;;1.97;1.50;;;19.70;97.30;;;;;;5100226;28;20198;-80
2022/08/23 08:44:00;;;;;;;3.17;1.93;;;19.70;97.30;;;;;;5081051;28;20189;-80
2022/08/23 08:46:48;;;;;;;1.27;1.13;;;19.80;97.30;;;;;;5081586;28;20975;-80
2022/08/23 08:49:24;;;;;;;3.53;2.47;;;19.80;97.30;;;;;;5081331;28;20432;-80
2022/08/23 08:51:57;;;;;;;2.93;2.20;;;19.80;97.30;;;;;;5081670;28;20409;-80
2022/08/23 08:54:26;;;;;;;2.07;1.93;;;19.90;97.30;;;;;;5081174;28;20478;-80
2022/08/23 08:56:55;;;;;;;2.30;2.10;;;19.90;97.30;;;;;;5099697;28;20460;-80
2022/08/23 08:59:26;;;;;;;3.40;2.10;;;19.90;97.30;;;;;;5099460;28;20813;-80
2022/08/23 09:01:51;;;;;;;5.57;2.27;;;19.90;97.30;;;;;;5081492;28;20416;-81
2022/08/23 09:04:18;;;;;;;2.27;2.07;;;19.90;97.30;;;;;;5082194;28;20509;-81
2022/08/23 09:07:05;;;;;;;2.73;1.97;;;20.00;97.30;;;;;;5071939;28;20206;-79
2022/08/23 09:09:59;;;;;;;2.17;2.00;;;20.00;97.30;;;;;;5060975;28;20824;-79
2022/08/23 09:13:07;;;;;;;4.30;2.50;;;20.00;97.30;;;;;;5060823;28;20946;-81
2022/08/23 09:16:01;;;;;;;2.30;2.10;;;20.10;97.30;;;;;;5061581;28;20432;-80
2022/08/23 09:18:33;;;;;;;2.17;1.80;;;20.20;97.30;;;;;;5060254;28;20463;-80
2022/08/23 09:21:00;;;;;;;6.43;2.83;;;20.30;97.30;;;;;;5079835;28;20394;-80
2022/08/23 09:23:34;;;;;;;2.40;1.83;;;20.40;97.30;;;;;;5060537;28;20453;-80
2022/08/23 09:26:04;;;;;;;2.30;1.53;;;20.50;97.30;;;;;;5060481;28;20410;-80
2022/08/23 09:28:35;;;;;;;2.30;2.00;;;20.60;97.30;;;;;;5061362;28;20405;-80
2022/08/23 09:31:01;;;;;;;1.77;1.73;;;20.60;97.30;;;;;;5079307;28;20390;-81
2022/08/23 09:33:42;;;;;;;2.33;1.60;;;20.70;97.30;;;;;;5061709;28;20774;-80
2022/08/23 09:36:20;;;;;;;5.40;1.80;;;20.70;97.30;;;;;;5061292;28;20430;-80
2022/08/23 09:39:00;;;;;;;2.27;2.00;;;20.80;97.30;;;;;;5061902;28;20425;-80
2022/08/23 09:41:40;;;;;;;3.10;2.40;;;20.90;97.30;;;;;;5060256;28;20420;-80
2022/08/23 09:44:12;;;;;;;2.53;1.83;;;21.00;97.30;;;;;;5060588;28;20468;-80
2022/08/23 09:46:40;;;;;;;1.30;1.27;;;21.10;97.30;;;;;;5078169;28;20405;-80
2022/08/23 09:49:25;;;;;;;5.70;2.13;;;21.20;97.30;;;;;;5081528;28;20440;-81
2022/08/23 09:51:52;;;;;;;2.07;1.60;;;21.30;97.30;;;;;;5080576;28;20471;-80
2022/08/23 09:54:23;;;;;;;1.70;1.53;;;21.40;97.30;;;;;;5080147;28;20447;-81
2022/08/23 09:56:53;;;;;;;1.73;1.53;;;21.50;97.30;;;;;;5077491;28;20461;-80
2022/08/23 09:59:22;;;;;;;1.83;1.47;;;21.60;97.30;;;;;;5077349;28;20780;-79
2022/08/23 10:01:50;;;;;;;2.53;1.80;;;21.70;97.30;;;;;;5078043;28;20474;-80
2022/08/23 10:04:23;;;;;;;2.60;1.80;;;21.90;97.30;;;;;;5077863;28;20457;-80
2022/08/23 10:06:50;;;;;;;3.50;1.30;;;22.10;97.30;;;;;;5077212;28;20413;-80
2022/08/23 10:09:42;;;;;;;2.47;1.40;;;22.30;97.30;;;;;;5078251;28;20429;-81
2022/08/23 10:12:07;;;;;;;1.43;1.30;;;22.40;97.30;;;;;;5073714;28;20476;-80
2022/08/23 10:14:33;;;;;;;1.77;1.53;;;22.40;97.30;;;;;;5078360;28;20417;-80
2022/08/23 10:17:25;;;;;;;2.53;2.07;;;22.50;96.70;;;;;;5078454;28;20171;-80
2022/08/23 10:20:25;;;;;;;1.63;1.20;;;22.60;95.80;;;;;;5079815;28;20209;-80
2022/08/23 10:22:59;;;;;;;1.70;1.60;;;22.60;94.70;;;;;;5081931;28;20460;-80
2022/08/23 10:25:29;;;;;;;1.60;1.23;;;22.60;95.40;;;;;;5080486;28;20520;-80
2022/08/23 10:31:35;;;;;;;1.30;1.20;;;22.80;96.00;;;;;;5080125;28;20420;-80
2022/08/23 10:34:33;;;;;;;1.87;1.40;;;23.00;95.20;;;;;;5080009;28;20492;-80
2022/08/23 10:37:09;;;;;;;2.90;2.67;;;23.00;94.40;;;;;;5079483;28;20432;-80
2022/08/23 10:39:44;;;;;;;1.37;1.30;;;22.90;94.50;;;;;;5079873;28;20505;-80
2022/08/23 10:42:39;;;;;;;1.50;1.50;;;22.80;94.60;;;;;;5078990;28;20409;-81
2022/08/23 10:45:21;;;;;;;11.13;1.53;;;22.80;95.10;;;;;;5080132;28;20405;-80
2022/08/23 10:48:07;;;;;;;2.00;1.93;;;22.70;95.30;;;;;;5080495;28;20440;-80
2022/08/23 10:50:51;;;;;;;1.57;1.50;;;22.60;95.30;;;;;;5080813;28;20445;-79
2022/08/23 10:53:18;;;;;;;1.77;1.17;;;22.50;95.80;;;;;;5079070;28;20513;-80
2022/08/23 10:56:03;;;;;;;2.40;1.73;;;22.50;96.00;;;;;;5079669;28;20424;-80
2022/08/23 10:58:40;;;;;;;2.30;1.43;;;22.40;95.50;;;;;;5077502;28;20418;-80
2022/08/23 11:01:07;;;;;;;2.10;1.77;;;22.30;95.90;;;;;;5077972;28;20447;-80
2022/08/23 11:04:22;;;;;;;1.27;1.23;;;22.30;96.20;;;;;;5078557;28;20509;-81
2022/08/23 11:06:55;;;;;;;1.23;1.17;;;22.30;96.30;;;;;;5049314;28;20409;-80
2022/08/23 11:09:20;;;;;;;1.87;1.73;;;22.30;96.50;;;;;;5078688;28;20485;-80
2022/08/23 11:12:06;;;;;;;1.43;1.20;;;22.40;96.40;;;;;;5079029;28;20452;-80
2022/08/23 11:15:08;;;;;;;1.27;1.27;;;22.60;96.50;;;;;;5079934;28;20183;-80
2022/08/23 11:17:57;;;;;;;1.70;1.33;;;22.90;96.00;;;;;;5081171;28;20460;-80
2022/08/23 11:20:47;;;;;;;2.17;1.53;;;23.10;95.30;;;;;;5079725;28;20449;-80
2022/08/23 11:23:24;;;;;;;2.23;1.67;;;23.40;95.80;;;;;;5079984;28;20465;-80
2022/08/23 11:25:49;;;;;;;1.97;1.40;;;23.70;95.30;;;;;;5083121;28;20396;-81
2022/08/23 11:28:24;;;;;;;2.80;1.53;;;23.90;94.40;;;;;;5082587;28;20417;-81
2022/08/23 11:31:33;;;;;;;2.20;1.73;;;24.10;93.70;;;;;;5082820;28;20190;-80
2022/08/23 11:34:02;;;;;;;1.00;0.90;;;24.30;91.80;;;;;;5071427;28;20831;-80
2022/08/23 11:36:28;;;;;;;3.93;2.10;;;24.50;92.70;;;;;;5082383;28;20980;-80
2022/08/23 11:38:54;;;;;;;2.57;1.80;;;24.60;91.90;;;;;;5083182;28;20972;-80
2022/08/23 11:41:35;;;;;;;1.17;1.07;;;24.60;90.80;;;;;;5083334;28;20449;-80
2022/08/23 11:44:01;;;;;;;1.77;1.27;;;24.60;91.00;;;;;;5084464;28;20203;-78
2022/08/23 11:46:30;;;;;;;1.47;1.37;;;24.60;89.10;;;;;;5084291;28;20831;-80
2022/08/23 11:49:22;;;;;;;1.37;1.30;;;24.70;90.40;;;;;;5084222;28;20226;-80
2022/08/23 11:52:08;;;;;;;1.63;1.30;;;24.90;90.00;;;;;;5082432;28;20799;-80
2022/08/23 11:54:54;;;;;;;1.40;1.00;;;25.10;88.00;;;;;;5083241;28;20939;-79
2022/08/23 11:57:57;;;;;;;1.10;1.10;;;25.20;89.40;;;;;;5081319;28;20477;-80
2022/08/23 12:01:04;;;;;;;1.57;1.40;;;25.40;88.50;;;;;;5081751;28;21016;-79
2022/08/23 12:03:43;;;;;;;1.00;0.97;;;25.60;89.10;;;;;;5080515;28;20487;-80
2022/08/23 12:06:34;;;;;;;1.50;1.23;;;25.70;87.70;;;;;;5082146;28;20477;-80
2022/08/23 12:09:11;;;;;;;4.50;1.27;;;25.50;86.90;;;;;;5083386;28;20472;-80
2022/08/23 12:11:54;;;;;;;1.00;0.90;;;25.40;87.70;;;;;;5082959;28;20474;-80
2022/08/23 12:14:50;;;;;;;1.63;1.53;;;25.20;88.10;;;;;;5083590;28;20418;-80
2022/08/23 12:17:17;;;;;;;1.77;1.43;;;25.00;87.50;;;;;;5081475;28;20444;-80
2022/08/23 12:19:47;;;;;;;1.60;1.50;;;24.80;88.20;;;;;;5084650;28;20508;-80
2022/08/23 12:22:20;;;;;;;1.63;1.53;;;24.60;88.30;;;;;;5083485;28;20418;-80
2022/08/23 12:25:04;;;;;;;3.43;1.47;;;24.50;88.80;;;;;;5082972;28;20437;-80
2022/08/23 12:27:48;;;;;;;1.00;0.90;;;24.40;89.30;;;;;;5083335;28;20413;-80
2022/08/23 12:30:37;;;;;;;2.30;1.53;;;24.30;89.40;;;;;;5082329;28;20437;-80
2022/08/23 12:33:24;;;;;;;1.37;1.10;;;24.30;90.00;;;;;;5082623;28;20426;-80
2022/08/23 12:36:04;;;;;;;1.53;1.50;;;24.50;91.60;;;;;;5082891;28;20421;-80
2022/08/23 12:38:46;;;;;;;1.37;1.17;;;24.80;91.80;;;;;;5083523;28;20432;-79
2022/08/23 12:41:19;;;;;;;1.63;1.50;;;25.10;90.50;;;;;;5081014;28;20417;-80
2022/08/23 12:44:07;;;;;;;1.73;1.40;;;25.40;89.30;;;;;;5081614;28;20479;-80
2022/08/23 12:46:39;;;;;;;1.10;1.10;;;25.70;87.80;;;;;;5081518;28;20409;-80
2022/08/23 12:49:08;;;;;;;1.97;1.87;;;25.90;86.90;;;;;;5082132;28;20487;-80
2022/08/23 12:51:48;;;;;;;1.63;1.10;;;26.20;87.60;;;;;;5083268;28;20413;-80
2022/08/23 12:54:16;;;;;;;1.53;1.40;;;26.40;86.50;;;;;;5081419;28;20946;-79
2022/08/23 12:56:46;;;;;;;1.40;1.30;;;26.50;85.80;;;;;;5081616;28;20469;-80
2022/08/23 12:59:33;;;;;;;1.63;1.13;;;26.50;85.30;;;;;;5082446;28;20433;-80
2022/08/23 13:02:05;;;;;;;1.60;1.23;;;26.50;86.00;;;;;;5082673;28;20586;-80
2022/08/23 13:04:32;;;;;;;4.40;1.00;;;26.40;85.10;;;;;;5082408;28;20445;-80
2022/08/23 13:07:03;;;;;;;1.10;1.00;;;26.20;84.50;;;;;;5081904;28;20420;-80
2022/08/23 13:09:37;;;;;;;1.33;1.27;;;25.90;84.50;;;;;;5081787;28;20461;-80
2022/08/23 13:12:05;;;;;;;1.57;1.47;;;25.70;84.70;;;;;;5081902;28;20420;-80
2022/08/23 13:14:30;;;;;;;1.80;1.20;;;25.50;85.60;;;;;;5081666;28;20421;-80
2022/08/23 13:17:10;;;;;;;2.03;1.20;;;25.40;85.60;;;;;;5082504;28;20422;-80
2022/08/23 13:19:36;;;;;;;1.27;1.00;;;25.20;86.20;;;;;;5081691;28;20209;-80
2022/08/23 13:22:17;;;;;;;1.10;1.10;;;25.40;86.30;;;;;;5081351;28;20501;-81